sensor_id;sensor_type;location;lat;lon;timestamp;P1;durP1;ratioP1;P2;durP2;ratioP2
45402;SDS011;47427;51.976;5.326;2022-12-10T00:00:41;102.25;;;50.45;;
45402;SDS011;47427;51.976;5.326;2022-12-10T00:04:03;89.13;;;46.05;;
45402;SDS011;47427;51.976;5.326;2022-12-10T00:07:25;104.43;;;47.83;;
45402;SDS011;47427;51.976;5.326;2022-12-10T00:10:46;86.22;;;44.80;;
45402;SDS011;47427;51.976;5.326;2022-12-10T00:14:08;90.82;;;44.53;;
45402;SDS011;47427;51.976;5.326;2022-12-10T00:17:31;86.65;;;43.22;;
45402;SDS011;47427;51.976;5.326;2022-12-10T00:20:53;88.75;;;45.63;;
45402;SDS011;47427;51.976;5.326;2022-12-10T00:24:15;99.55;;;49.22;;
45402;SDS011;47427;51.976;5.326;2022-12-10T00:27:37;92.57;;;46.45;;
45402;SDS011;47427;51.976;5.326;2022-12-10T00:31:03;96.15;;;45.17;;
45402;SDS011;47427;51.976;5.326;2022-12-10T00:34:31;95.82;;;46.22;;
45402;SDS011;47427;51.976;5.326;2022-12-10T00:37:53;92.05;;;46.42;;
45402;SDS011;47427;51.976;5.326;2022-12-10T00:41:16;94.13;;;47.20;;
45402;SDS011;47427;51.976;5.326;2022-12-10T00:45:04;108.78;;;51.15;;
45402;SDS011;47427;51.976;5.326;2022-12-10T00:48:26;93.07;;;47.40;;
45402;SDS011;47427;51.976;5.326;2022-12-10T00:51:47;105.88;;;52.30;;
45402;SDS011;47427;51.976;5.326;2022-12-10T00:55:09;105.63;;;50.10;;
45402;SDS011;47427;51.976;5.326;2022-12-10T00:58:33;103.50;;;47.22;;
45402;SDS011;47427;51.976;5.326;2022-12-10T01:01:56;101.53;;;45.67;;
45402;SDS011;47427;51.976;5.326;2022-12-10T01:05:20;105.85;;;50.50;;
45402;SDS011;47427;51.976;5.326;2022-12-10T01:08:42;111.82;;;52.65;;
45402;SDS011;47427;51.976;5.326;2022-12-10T01:12:05;109.32;;;48.20;;
45402;SDS011;47427;51.976;5.326;2022-12-10T01:15:27;111.60;;;49.10;;
45402;SDS011;47427;51.976;5.326;2022-12-10T01:18:49;117.22;;;51.00;;
45402;SDS011;47427;51.976;5.326;2022-12-10T01:22:14;125.65;;;53.83;;
45402;SDS011;47427;51.976;5.326;2022-12-10T01:25:35;122.70;;;54.15;;
45402;SDS011;47427;51.976;5.326;2022-12-10T01:28:57;109.25;;;52.60;;
45402;SDS011;47427;51.976;5.326;2022-12-10T01:32:19;107.15;;;52.63;;
45402;SDS011;47427;51.976;5.326;2022-12-10T01:35:41;112.05;;;52.45;;
45402;SDS011;47427;51.976;5.326;2022-12-10T01:39:04;117.85;;;53.45;;
45402;SDS011;47427;51.976;5.326;2022-12-10T01:42:27;149.75;;;59.08;;
45402;SDS011;47427;51.976;5.326;2022-12-10T01:45:49;128.00;;;56.10;;
45402;SDS011;47427;51.976;5.326;2022-12-10T01:49:15;137.95;;;55.28;;
45402;SDS011;47427;51.976;5.326;2022-12-10T01:52:41;150.30;;;60.70;;
45402;SDS011;47427;51.976;5.326;2022-12-10T01:56:02;149.35;;;56.47;;
45402;SDS011;47427;51.976;5.326;2022-12-10T01:59:24;142.55;;;59.85;;
45402;SDS011;47427;51.976;5.326;2022-12-10T02:02:54;120.50;;;53.35;;
45402;SDS011;47427;51.976;5.326;2022-12-10T02:06:28;132.98;;;54.97;;
45402;SDS011;47427;51.976;5.326;2022-12-10T02:14:01;126.38;;;56.30;;
45402;SDS011;47427;51.976;5.326;2022-12-10T02:21:36;168.30;;;57.00;;
45402;SDS011;47427;51.976;5.326;2022-12-10T02:25:05;127.10;;;55.20;;
45402;SDS011;47427;51.976;5.326;2022-12-10T02:32:30;139.70;;;57.70;;
45402;SDS011;47427;51.976;5.326;2022-12-10T02:35:58;131.40;;;55.67;;
45402;SDS011;47427;51.976;5.326;2022-12-10T02:39:23;157.63;;;60.83;;
45402;SDS011;47427;51.976;5.326;2022-12-10T02:42:53;194.40;;;69.50;;
45402;SDS011;47427;51.976;5.326;2022-12-10T02:46:16;255.85;;;77.72;;
45402;SDS011;47427;51.976;5.326;2022-12-10T02:49:39;196.57;;;66.03;;
45402;SDS011;47427;51.976;5.326;2022-12-10T02:53:02;237.88;;;69.75;;
45402;SDS011;47427;51.976;5.326;2022-12-10T02:56:27;158.90;;;53.95;;
45402;SDS011;47427;51.976;5.326;2022-12-10T03:03:56;164.48;;;56.38;;
45402;SDS011;47427;51.976;5.326;2022-12-10T03:07:32;166.05;;;54.95;;
45402;SDS011;47427;51.976;5.326;2022-12-10T03:11:12;307.52;;;64.75;;
45402;SDS011;47427;51.976;5.326;2022-12-10T03:14:37;181.25;;;57.00;;
45402;SDS011;47427;51.976;5.326;2022-12-10T03:18:19;208.43;;;58.42;;
45402;SDS011;47427;51.976;5.326;2022-12-10T03:21:46;161.00;;;56.58;;
45402;SDS011;47427;51.976;5.326;2022-12-10T03:25:12;274.77;;;71.47;;
45402;SDS011;47427;51.976;5.326;2022-12-10T03:28:42;415.75;;;74.68;;
45402;SDS011;47427;51.976;5.326;2022-12-10T03:32:13;301.52;;;65.03;;
45402;SDS011;47427;51.976;5.326;2022-12-10T03:35:36;272.23;;;62.45;;
45402;SDS011;47427;51.976;5.326;2022-12-10T03:38:59;274.98;;;61.58;;
45402;SDS011;47427;51.976;5.326;2022-12-10T03:42:23;176.15;;;56.10;;
45402;SDS011;47427;51.976;5.326;2022-12-10T03:45:46;276.25;;;61.90;;
45402;SDS011;47427;51.976;5.326;2022-12-10T03:49:09;284.85;;;65.18;;
45402;SDS011;47427;51.976;5.326;2022-12-10T03:52:32;461.33;;;91.55;;
45402;SDS011;47427;51.976;5.326;2022-12-10T03:55:55;550.65;;;104.60;;
45402;SDS011;47427;51.976;5.326;2022-12-10T03:59:17;309.63;;;66.72;;
45402;SDS011;47427;51.976;5.326;2022-12-10T04:02:40;211.38;;;60.90;;
45402;SDS011;47427;51.976;5.326;2022-12-10T04:06:03;303.48;;;61.00;;
45402;SDS011;47427;51.976;5.326;2022-12-10T04:09:29;174.07;;;54.60;;
45402;SDS011;47427;51.976;5.326;2022-12-10T04:12:51;467.15;;;90.93;;
45402;SDS011;47427;51.976;5.326;2022-12-10T04:16:33;364.45;;;76.63;;
45402;SDS011;47427;51.976;5.326;2022-12-10T04:19:56;430.60;;;82.22;;
45402;SDS011;47427;51.976;5.326;2022-12-10T04:23:18;446.77;;;91.82;;
45402;SDS011;47427;51.976;5.326;2022-12-10T04:26:59;320.55;;;70.85;;
45402;SDS011;47427;51.976;5.326;2022-12-10T04:30:56;326.77;;;66.85;;
45402;SDS011;47427;51.976;5.326;2022-12-10T04:34:18;418.63;;;80.18;;
45402;SDS011;47427;51.976;5.326;2022-12-10T04:37:41;312.23;;;58.70;;
45402;SDS011;47427;51.976;5.326;2022-12-10T04:41:04;269.88;;;57.58;;
45402;SDS011;47427;51.976;5.326;2022-12-10T04:44:36;408.00;;;66.85;;
45402;SDS011;47427;51.976;5.326;2022-12-10T04:47:58;375.50;;;67.40;;
45402;SDS011;47427;51.976;5.326;2022-12-10T04:51:19;424.27;;;75.38;;
45402;SDS011;47427;51.976;5.326;2022-12-10T04:54:41;354.67;;;69.05;;
45402;SDS011;47427;51.976;5.326;2022-12-10T04:58:04;351.70;;;73.25;;
45402;SDS011;47427;51.976;5.326;2022-12-10T05:01:26;257.95;;;53.55;;
45402;SDS011;47427;51.976;5.326;2022-12-10T05:04:48;396.65;;;68.32;;
45402;SDS011;47427;51.976;5.326;2022-12-10T05:08:10;344.88;;;58.55;;
45402;SDS011;47427;51.976;5.326;2022-12-10T05:11:32;291.65;;;60.85;;
45402;SDS011;47427;51.976;5.326;2022-12-10T05:14:55;330.08;;;63.10;;
45402;SDS011;47427;51.976;5.326;2022-12-10T05:18:16;410.92;;;77.80;;
45402;SDS011;47427;51.976;5.326;2022-12-10T05:21:38;328.90;;;65.35;;
45402;SDS011;47427;51.976;5.326;2022-12-10T05:25:18;268.55;;;58.85;;
45402;SDS011;47427;51.976;5.326;2022-12-10T05:28:42;274.95;;;60.55;;
45402;SDS011;47427;51.976;5.326;2022-12-10T05:32:09;316.17;;;64.57;;
45402;SDS011;47427;51.976;5.326;2022-12-10T05:35:32;391.05;;;78.65;;
45402;SDS011;47427;51.976;5.326;2022-12-10T05:38:57;432.48;;;83.93;;
45402;SDS011;47427;51.976;5.326;2022-12-10T05:42:21;210.60;;;58.97;;
45402;SDS011;47427;51.976;5.326;2022-12-10T05:45:44;296.15;;;64.15;;
45402;SDS011;47427;51.976;5.326;2022-12-10T05:49:07;387.08;;;78.40;;
45402;SDS011;47427;51.976;5.326;2022-12-10T05:52:30;307.23;;;60.40;;
45402;SDS011;47427;51.976;5.326;2022-12-10T05:55:59;240.85;;;54.35;;
45402;SDS011;47427;51.976;5.326;2022-12-10T05:59:27;343.60;;;74.03;;
45402;SDS011;47427;51.976;5.326;2022-12-10T06:02:50;188.60;;;55.08;;
45402;SDS011;47427;51.976;5.326;2022-12-10T06:06:12;260.58;;;56.72;;
45402;SDS011;47427;51.976;5.326;2022-12-10T06:09:35;272.45;;;59.50;;
45402;SDS011;47427;51.976;5.326;2022-12-10T06:12:58;387.65;;;80.57;;
45402;SDS011;47427;51.976;5.326;2022-12-10T06:16:20;307.13;;;71.68;;
45402;SDS011;47427;51.976;5.326;2022-12-10T06:19:44;476.02;;;92.20;;
45402;SDS011;47427;51.976;5.326;2022-12-10T06:23:07;306.38;;;70.55;;
45402;SDS011;47427;51.976;5.326;2022-12-10T06:26:29;301.52;;;67.55;;
45402;SDS011;47427;51.976;5.326;2022-12-10T06:29:52;373.63;;;77.15;;
45402;SDS011;47427;51.976;5.326;2022-12-10T06:33:15;205.90;;;52.47;;
45402;SDS011;47427;51.976;5.326;2022-12-10T06:36:37;349.83;;;72.85;;
45402;SDS011;47427;51.976;5.326;2022-12-10T06:40:00;308.67;;;67.20;;
45402;SDS011;47427;51.976;5.326;2022-12-10T06:43:23;284.20;;;70.10;;
45402;SDS011;47427;51.976;5.326;2022-12-10T06:46:46;239.90;;;59.90;;
45402;SDS011;47427;51.976;5.326;2022-12-10T06:50:09;280.17;;;69.00;;
45402;SDS011;47427;51.976;5.326;2022-12-10T06:53:34;171.63;;;53.00;;
45402;SDS011;47427;51.976;5.326;2022-12-10T06:56:57;185.82;;;49.13;;
45402;SDS011;47427;51.976;5.326;2022-12-10T07:00:19;200.13;;;46.63;;
45402;SDS011;47427;51.976;5.326;2022-12-10T07:03:42;292.65;;;65.13;;
45402;SDS011;47427;51.976;5.326;2022-12-10T07:07:04;223.65;;;54.20;;
45402;SDS011;47427;51.976;5.326;2022-12-10T07:10:27;139.90;;;49.30;;
45402;SDS011;47427;51.976;5.326;2022-12-10T07:13:49;196.90;;;51.15;;
45402;SDS011;47427;51.976;5.326;2022-12-10T07:17:11;250.95;;;58.53;;
45402;SDS011;47427;51.976;5.326;2022-12-10T07:20:33;299.77;;;66.22;;
45402;SDS011;47427;51.976;5.326;2022-12-10T07:23:55;306.17;;;64.00;;
45402;SDS011;47427;51.976;5.326;2022-12-10T07:27:18;323.42;;;63.72;;
45402;SDS011;47427;51.976;5.326;2022-12-10T07:30:40;251.82;;;54.70;;
45402;SDS011;47427;51.976;5.326;2022-12-10T07:34:02;277.77;;;59.60;;
45402;SDS011;47427;51.976;5.326;2022-12-10T07:37:23;161.18;;;42.95;;
45402;SDS011;47427;51.976;5.326;2022-12-10T07:40:45;287.60;;;57.75;;
45402;SDS011;47427;51.976;5.326;2022-12-10T07:44:08;197.50;;;49.72;;
45402;SDS011;47427;51.976;5.326;2022-12-10T07:47:34;173.27;;;48.20;;
45402;SDS011;47427;51.976;5.326;2022-12-10T07:50:58;192.43;;;49.53;;
45402;SDS011;47427;51.976;5.326;2022-12-10T07:54:20;330.85;;;65.40;;
45402;SDS011;47427;51.976;5.326;2022-12-10T07:57:41;266.92;;;66.38;;
45402;SDS011;47427;51.976;5.326;2022-12-10T08:01:06;302.15;;;63.13;;
45402;SDS011;47427;51.976;5.326;2022-12-10T08:04:30;228.80;;;50.72;;
45402;SDS011;47427;51.976;5.326;2022-12-10T08:07:52;215.05;;;46.88;;
45402;SDS011;47427;51.976;5.326;2022-12-10T08:11:14;207.05;;;42.70;;
45402;SDS011;47427;51.976;5.326;2022-12-10T08:14:38;161.50;;;45.65;;
45402;SDS011;47427;51.976;5.326;2022-12-10T08:17:59;248.27;;;54.65;;
45402;SDS011;47427;51.976;5.326;2022-12-10T08:21:22;299.42;;;62.45;;
45402;SDS011;47427;51.976;5.326;2022-12-10T08:24:46;114.55;;;44.25;;
45402;SDS011;47427;51.976;5.326;2022-12-10T08:28:08;248.98;;;59.42;;
45402;SDS011;47427;51.976;5.326;2022-12-10T08:31:30;276.70;;;60.60;;
45402;SDS011;47427;51.976;5.326;2022-12-10T08:34:52;448.17;;;74.55;;
45402;SDS011;47427;51.976;5.326;2022-12-10T08:38:13;251.02;;;57.08;;
45402;SDS011;47427;51.976;5.326;2022-12-10T08:41:35;240.68;;;54.58;;
45402;SDS011;47427;51.976;5.326;2022-12-10T08:45:18;278.70;;;55.42;;
45402;SDS011;47427;51.976;5.326;2022-12-10T08:48:40;242.40;;;56.97;;
45402;SDS011;47427;51.976;5.326;2022-12-10T08:52:02;325.80;;;66.40;;
45402;SDS011;47427;51.976;5.326;2022-12-10T08:55:24;256.33;;;59.67;;
45402;SDS011;47427;51.976;5.326;2022-12-10T08:58:46;224.43;;;54.65;;
45402;SDS011;47427;51.976;5.326;2022-12-10T09:02:09;157.48;;;45.47;;
45402;SDS011;47427;51.976;5.326;2022-12-10T09:05:31;189.73;;;45.92;;
45402;SDS011;47427;51.976;5.326;2022-12-10T09:08:55;166.02;;;44.78;;
45402;SDS011;47427;51.976;5.326;2022-12-10T09:12:17;189.10;;;47.80;;
45402;SDS011;47427;51.976;5.326;2022-12-10T09:15:38;209.75;;;52.55;;
45402;SDS011;47427;51.976;5.326;2022-12-10T09:19:00;333.52;;;72.35;;
45402;SDS011;47427;51.976;5.326;2022-12-10T09:22:24;177.05;;;47.00;;
45402;SDS011;47427;51.976;5.326;2022-12-10T09:25:46;219.88;;;53.05;;
45402;SDS011;47427;51.976;5.326;2022-12-10T09:29:08;199.75;;;48.15;;
45402;SDS011;47427;51.976;5.326;2022-12-10T09:32:29;181.88;;;45.60;;
45402;SDS011;47427;51.976;5.326;2022-12-10T09:35:51;189.65;;;48.25;;
45402;SDS011;47427;51.976;5.326;2022-12-10T09:39:13;303.38;;;62.10;;
45402;SDS011;47427;51.976;5.326;2022-12-10T09:42:42;145.45;;;42.80;;
45402;SDS011;47427;51.976;5.326;2022-12-10T09:50:19;128.98;;;39.50;;
45402;SDS011;47427;51.976;5.326;2022-12-10T09:57:53;156.10;;;42.72;;
45402;SDS011;47427;51.976;5.326;2022-12-10T10:01:15;200.85;;;53.67;;
45402;SDS011;47427;51.976;5.326;2022-12-10T10:04:43;157.68;;;43.97;;
45402;SDS011;47427;51.976;5.326;2022-12-10T10:08:51;180.52;;;49.60;;
45402;SDS011;47427;51.976;5.326;2022-12-10T10:11:49;160.30;;;54.60;;
45402;SDS011;47427;51.976;5.326;2022-12-10T10:15:18;131.98;;;44.10;;
45402;SDS011;47427;51.976;5.326;2022-12-10T10:19:13;149.73;;;42.13;;
45402;SDS011;47427;51.976;5.326;2022-12-10T10:22:42;104.20;;;39.10;;
45402;SDS011;47427;51.976;5.326;2022-12-10T10:26:03;193.35;;;42.05;;
45402;SDS011;47427;51.976;5.326;2022-12-10T10:29:25;231.63;;;49.28;;
45402;SDS011;47427;51.976;5.326;2022-12-10T10:32:49;122.63;;;39.45;;
45402;SDS011;47427;51.976;5.326;2022-12-10T10:36:12;156.38;;;45.50;;
45402;SDS011;47427;51.976;5.326;2022-12-10T10:39:35;125.63;;;36.92;;
45402;SDS011;47427;51.976;5.326;2022-12-10T10:42:57;150.13;;;39.88;;
45402;SDS011;47427;51.976;5.326;2022-12-10T10:46:21;129.27;;;40.95;;
45402;SDS011;47427;51.976;5.326;2022-12-10T10:49:44;148.68;;;41.17;;
45402;SDS011;47427;51.976;5.326;2022-12-10T10:53:22;149.35;;;45.70;;
45402;SDS011;47427;51.976;5.326;2022-12-10T10:57:23;169.18;;;49.80;;
45402;SDS011;47427;51.976;5.326;2022-12-10T11:01:01;138.93;;;39.80;;
45402;SDS011;47427;51.976;5.326;2022-12-10T11:04:36;161.60;;;43.25;;
45402;SDS011;47427;51.976;5.326;2022-12-10T11:08:12;111.97;;;40.53;;
45402;SDS011;47427;51.976;5.326;2022-12-10T11:11:43;142.02;;;43.67;;
45402;SDS011;47427;51.976;5.326;2022-12-10T11:18:52;141.65;;;44.47;;
45402;SDS011;47427;51.976;5.326;2022-12-10T11:22:22;158.63;;;44.03;;
45402;SDS011;47427;51.976;5.326;2022-12-10T11:25:57;176.20;;;49.17;;
45402;SDS011;47427;51.976;5.326;2022-12-10T11:30:00;101.60;;;34.17;;
45402;SDS011;47427;51.976;5.326;2022-12-10T11:33:32;145.80;;;44.63;;
45402;SDS011;47427;51.976;5.326;2022-12-10T11:37:18;137.55;;;42.78;;
45402;SDS011;47427;51.976;5.326;2022-12-10T11:56:27;132.30;;;41.20;;
45402;SDS011;47427;51.976;5.326;2022-12-10T12:19:27;133.27;;;42.22;;
45402;SDS011;47427;51.976;5.326;2022-12-10T12:23:02;109.82;;;38.20;;
45402;SDS011;47427;51.976;5.326;2022-12-10T12:27:07;124.50;;;40.13;;
45402;SDS011;47427;51.976;5.326;2022-12-10T12:31:03;113.00;;;33.13;;
45402;SDS011;47427;51.976;5.326;2022-12-10T12:34:47;126.15;;;40.78;;
45402;SDS011;47427;51.976;5.326;2022-12-10T12:38:29;116.10;;;39.97;;
45402;SDS011;47427;51.976;5.326;2022-12-10T12:42:22;169.13;;;44.42;;
45402;SDS011;47427;51.976;5.326;2022-12-10T12:45:59;115.82;;;42.42;;
45402;SDS011;47427;51.976;5.326;2022-12-10T12:49:24;138.00;;;41.15;;
45402;SDS011;47427;51.976;5.326;2022-12-10T12:52:57;128.57;;;39.38;;
45402;SDS011;47427;51.976;5.326;2022-12-10T13:00:21;106.68;;;38.17;;
45402;SDS011;47427;51.976;5.326;2022-12-10T13:03:44;135.20;;;53.45;;
45402;SDS011;47427;51.976;5.326;2022-12-10T13:07:26;241.10;;;61.30;;
45402;SDS011;47427;51.976;5.326;2022-12-10T13:10:56;131.48;;;37.67;;
45402;SDS011;47427;51.976;5.326;2022-12-10T13:14:34;106.97;;;39.65;;
45402;SDS011;47427;51.976;5.326;2022-12-10T13:21:56;147.38;;;44.67;;
45402;SDS011;47427;51.976;5.326;2022-12-10T13:25:19;131.30;;;45.17;;
45402;SDS011;47427;51.976;5.326;2022-12-10T13:29:13;98.80;;;40.95;;
45402;SDS011;47427;51.976;5.326;2022-12-10T13:32:46;107.50;;;39.17;;
45402;SDS011;47427;51.976;5.326;2022-12-10T13:36:13;154.40;;;48.17;;
45402;SDS011;47427;51.976;5.326;2022-12-10T13:39:59;208.57;;;51.90;;
45402;SDS011;47427;51.976;5.326;2022-12-10T13:47:24;196.90;;;50.83;;
45402;SDS011;47427;51.976;5.326;2022-12-10T13:51:04;139.70;;;44.08;;
45402;SDS011;47427;51.976;5.326;2022-12-10T13:58:52;125.65;;;42.55;;
45402;SDS011;47427;51.976;5.326;2022-12-10T14:06:19;125.43;;;45.25;;
45402;SDS011;47427;51.976;5.326;2022-12-10T14:09:56;108.97;;;40.50;;
45402;SDS011;47427;51.976;5.326;2022-12-10T14:13:21;129.75;;;43.30;;
45402;SDS011;47427;51.976;5.326;2022-12-10T14:16:50;119.25;;;42.75;;
45402;SDS011;47427;51.976;5.326;2022-12-10T14:20:14;123.90;;;44.22;;
45402;SDS011;47427;51.976;5.326;2022-12-10T14:23:46;139.60;;;43.65;;
45402;SDS011;47427;51.976;5.326;2022-12-10T14:27:19;120.43;;;43.08;;
45402;SDS011;47427;51.976;5.326;2022-12-10T14:30:48;131.02;;;45.08;;
45402;SDS011;47427;51.976;5.326;2022-12-10T14:34:11;130.52;;;48.17;;
45402;SDS011;47427;51.976;5.326;2022-12-10T14:37:39;141.70;;;45.88;;
45402;SDS011;47427;51.976;5.326;2022-12-10T14:41:04;128.73;;;42.05;;
45402;SDS011;47427;51.976;5.326;2022-12-10T14:44:27;164.23;;;52.00;;
45402;SDS011;47427;51.976;5.326;2022-12-10T14:47:51;145.63;;;48.17;;
45402;SDS011;47427;51.976;5.326;2022-12-10T14:51:15;129.27;;;44.35;;
45402;SDS011;47427;51.976;5.326;2022-12-10T14:54:44;187.18;;;54.15;;
45402;SDS011;47427;51.976;5.326;2022-12-10T14:58:06;132.63;;;46.72;;
45402;SDS011;47427;51.976;5.326;2022-12-10T15:01:38;142.48;;;46.35;;
45402;SDS011;47427;51.976;5.326;2022-12-10T15:05:09;165.77;;;53.13;;
45402;SDS011;47427;51.976;5.326;2022-12-10T15:08:40;141.98;;;48.08;;
45402;SDS011;47427;51.976;5.326;2022-12-10T15:12:03;189.43;;;54.08;;
45402;SDS011;47427;51.976;5.326;2022-12-10T15:15:29;151.23;;;51.00;;
45402;SDS011;47427;51.976;5.326;2022-12-10T15:19:09;160.98;;;54.42;;
45402;SDS011;47427;51.976;5.326;2022-12-10T15:22:41;155.98;;;53.20;;
45402;SDS011;47427;51.976;5.326;2022-12-10T15:26:14;140.13;;;49.53;;
45402;SDS011;47427;51.976;5.326;2022-12-10T15:29:40;143.32;;;49.60;;
45402;SDS011;47427;51.976;5.326;2022-12-10T15:33:02;177.70;;;54.53;;
45402;SDS011;47427;51.976;5.326;2022-12-10T15:37:20;148.60;;;47.75;;
45402;SDS011;47427;51.976;5.326;2022-12-10T15:40:45;125.25;;;45.92;;
45402;SDS011;47427;51.976;5.326;2022-12-10T15:47:49;157.10;;;51.10;;
45402;SDS011;47427;51.976;5.326;2022-12-10T15:51:11;131.07;;;44.95;;
45402;SDS011;47427;51.976;5.326;2022-12-10T15:54:34;139.38;;;46.70;;
45402;SDS011;47427;51.976;5.326;2022-12-10T15:57:58;108.67;;;35.10;;
45402;SDS011;47427;51.976;5.326;2022-12-10T16:01:19;138.75;;;38.65;;
45402;SDS011;47427;51.976;5.326;2022-12-10T16:04:41;104.95;;;36.03;;
45402;SDS011;47427;51.976;5.326;2022-12-10T16:08:12;120.70;;;39.92;;
45402;SDS011;47427;51.976;5.326;2022-12-10T16:11:43;86.80;;;32.92;;
45402;SDS011;47427;51.976;5.326;2022-12-10T16:15:05;124.38;;;37.83;;
45402;SDS011;47427;51.976;5.326;2022-12-10T16:18:35;133.27;;;41.00;;
45402;SDS011;47427;51.976;5.326;2022-12-10T16:21:57;113.45;;;36.05;;
45402;SDS011;47427;51.976;5.326;2022-12-10T16:25:19;94.55;;;34.85;;
45402;SDS011;47427;51.976;5.326;2022-12-10T16:28:43;126.63;;;37.53;;
45402;SDS011;47427;51.976;5.326;2022-12-10T16:32:05;108.55;;;40.38;;
45402;SDS011;47427;51.976;5.326;2022-12-10T16:35:26;193.13;;;54.20;;
45402;SDS011;47427;51.976;5.326;2022-12-10T16:38:48;113.97;;;38.80;;
45402;SDS011;47427;51.976;5.326;2022-12-10T16:42:10;110.97;;;38.38;;
45402;SDS011;47427;51.976;5.326;2022-12-10T16:45:36;123.60;;;40.05;;
45402;SDS011;47427;51.976;5.326;2022-12-10T16:48:59;128.45;;;40.60;;
45402;SDS011;47427;51.976;5.326;2022-12-10T16:52:20;113.95;;;39.70;;
45402;SDS011;47427;51.976;5.326;2022-12-10T16:55:43;148.80;;;50.08;;
45402;SDS011;47427;51.976;5.326;2022-12-10T16:59:05;211.40;;;56.08;;
45402;SDS011;47427;51.976;5.326;2022-12-10T17:02:27;164.60;;;48.30;;
45402;SDS011;47427;51.976;5.326;2022-12-10T17:05:49;132.38;;;43.88;;
45402;SDS011;47427;51.976;5.326;2022-12-10T17:09:16;176.02;;;47.70;;
45402;SDS011;47427;51.976;5.326;2022-12-10T17:12:38;197.48;;;50.60;;
45402;SDS011;47427;51.976;5.326;2022-12-10T17:16:02;132.55;;;45.03;;
45402;SDS011;47427;51.976;5.326;2022-12-10T17:19:28;302.67;;;66.35;;
45402;SDS011;47427;51.976;5.326;2022-12-10T17:22:53;187.35;;;54.20;;
45402;SDS011;47427;51.976;5.326;2022-12-10T17:26:28;131.68;;;42.88;;
45402;SDS011;47427;51.976;5.326;2022-12-10T17:29:53;156.02;;;44.60;;
45402;SDS011;47427;51.976;5.326;2022-12-10T17:33:20;125.95;;;47.78;;
45402;SDS011;47427;51.976;5.326;2022-12-10T17:36:43;168.90;;;49.28;;
45402;SDS011;47427;51.976;5.326;2022-12-10T17:40:28;161.00;;;46.13;;
45402;SDS011;47427;51.976;5.326;2022-12-10T17:43:47;154.13;;;45.50;;
45402;SDS011;47427;51.976;5.326;2022-12-10T17:47:15;148.68;;;46.40;;
45402;SDS011;47427;51.976;5.326;2022-12-10T17:50:42;170.02;;;47.05;;
45402;SDS011;47427;51.976;5.326;2022-12-10T17:54:05;160.20;;;43.90;;
45402;SDS011;47427;51.976;5.326;2022-12-10T17:57:26;207.95;;;57.80;;
45402;SDS011;47427;51.976;5.326;2022-12-10T18:00:49;194.70;;;55.25;;
45402;SDS011;47427;51.976;5.326;2022-12-10T18:04:12;133.68;;;44.30;;
45402;SDS011;47427;51.976;5.326;2022-12-10T18:07:34;157.18;;;49.10;;
45402;SDS011;47427;51.976;5.326;2022-12-10T18:10:56;213.60;;;58.05;;
45402;SDS011;47427;51.976;5.326;2022-12-10T18:14:18;185.30;;;56.53;;
45402;SDS011;47427;51.976;5.326;2022-12-10T18:17:40;148.48;;;50.25;;
45402;SDS011;47427;51.976;5.326;2022-12-10T18:21:02;178.57;;;52.58;;
45402;SDS011;47427;51.976;5.326;2022-12-10T18:24:24;160.50;;;49.38;;
45402;SDS011;47427;51.976;5.326;2022-12-10T18:27:46;154.65;;;46.53;;
45402;SDS011;47427;51.976;5.326;2022-12-10T18:31:08;162.05;;;51.53;;
45402;SDS011;47427;51.976;5.326;2022-12-10T18:34:42;147.77;;;46.47;;
45402;SDS011;47427;51.976;5.326;2022-12-10T18:38:03;214.65;;;58.33;;
45402;SDS011;47427;51.976;5.326;2022-12-10T18:41:25;181.27;;;54.13;;
45402;SDS011;47427;51.976;5.326;2022-12-10T18:44:47;170.15;;;54.00;;
45402;SDS011;47427;51.976;5.326;2022-12-10T18:48:09;132.43;;;43.58;;
45402;SDS011;47427;51.976;5.326;2022-12-10T18:51:30;141.85;;;45.78;;
45402;SDS011;47427;51.976;5.326;2022-12-10T18:54:52;155.32;;;46.90;;
45402;SDS011;47427;51.976;5.326;2022-12-10T18:58:13;162.80;;;50.40;;
45402;SDS011;47427;51.976;5.326;2022-12-10T19:01:36;143.35;;;50.75;;
45402;SDS011;47427;51.976;5.326;2022-12-10T19:04:57;137.82;;;47.95;;
45402;SDS011;47427;51.976;5.326;2022-12-10T19:08:19;272.52;;;65.07;;
45402;SDS011;47427;51.976;5.326;2022-12-10T19:11:41;180.73;;;51.38;;
45402;SDS011;47427;51.976;5.326;2022-12-10T19:15:03;119.20;;;44.20;;
45402;SDS011;47427;51.976;5.326;2022-12-10T19:18:26;148.77;;;47.35;;
45402;SDS011;47427;51.976;5.326;2022-12-10T19:21:47;196.55;;;53.33;;
45402;SDS011;47427;51.976;5.326;2022-12-10T19:25:09;190.85;;;53.00;;
45402;SDS011;47427;51.976;5.326;2022-12-10T19:28:31;242.43;;;57.22;;
45402;SDS011;47427;51.976;5.326;2022-12-10T19:31:52;133.30;;;45.65;;
45402;SDS011;47427;51.976;5.326;2022-12-10T19:35:15;211.70;;;53.60;;
45402;SDS011;47427;51.976;5.326;2022-12-10T19:38:40;208.93;;;54.53;;
45402;SDS011;47427;51.976;5.326;2022-12-10T19:42:28;141.95;;;46.10;;
45402;SDS011;47427;51.976;5.326;2022-12-10T19:45:50;142.60;;;46.92;;
45402;SDS011;47427;51.976;5.326;2022-12-10T19:49:13;162.18;;;46.60;;
45402;SDS011;47427;51.976;5.326;2022-12-10T19:52:36;130.15;;;44.72;;
45402;SDS011;47427;51.976;5.326;2022-12-10T19:55:58;204.98;;;57.00;;
45402;SDS011;47427;51.976;5.326;2022-12-10T19:59:19;202.95;;;57.50;;
45402;SDS011;47427;51.976;5.326;2022-12-10T20:02:41;208.52;;;57.25;;
45402;SDS011;47427;51.976;5.326;2022-12-10T20:06:04;145.95;;;50.90;;
45402;SDS011;47427;51.976;5.326;2022-12-10T20:09:42;189.13;;;58.40;;
45402;SDS011;47427;51.976;5.326;2022-12-10T20:13:05;164.88;;;51.72;;
45402;SDS011;47427;51.976;5.326;2022-12-10T20:16:27;186.52;;;54.65;;
45402;SDS011;47427;51.976;5.326;2022-12-10T20:19:50;155.25;;;49.97;;
45402;SDS011;47427;51.976;5.326;2022-12-10T20:23:12;142.73;;;48.95;;
45402;SDS011;47427;51.976;5.326;2022-12-10T20:26:35;126.53;;;48.90;;
45402;SDS011;47427;51.976;5.326;2022-12-10T20:29:59;184.32;;;56.65;;
45402;SDS011;47427;51.976;5.326;2022-12-10T20:33:20;139.05;;;49.97;;
45402;SDS011;47427;51.976;5.326;2022-12-10T20:36:42;176.23;;;56.70;;
45402;SDS011;47427;51.976;5.326;2022-12-10T20:40:05;174.43;;;55.00;;
45402;SDS011;47427;51.976;5.326;2022-12-10T20:43:28;156.77;;;52.28;;
45402;SDS011;47427;51.976;5.326;2022-12-10T20:46:50;140.52;;;48.58;;
45402;SDS011;47427;51.976;5.326;2022-12-10T20:50:14;137.85;;;46.22;;
45402;SDS011;47427;51.976;5.326;2022-12-10T20:53:38;110.50;;;45.00;;
45402;SDS011;47427;51.976;5.326;2022-12-10T20:56:59;176.13;;;54.47;;
45402;SDS011;47427;51.976;5.326;2022-12-10T21:00:21;116.30;;;43.70;;
45402;SDS011;47427;51.976;5.326;2022-12-10T21:03:43;121.38;;;46.17;;
45402;SDS011;47427;51.976;5.326;2022-12-10T21:07:05;122.90;;;43.13;;
45402;SDS011;47427;51.976;5.326;2022-12-10T21:10:27;138.52;;;48.95;;
45402;SDS011;47427;51.976;5.326;2022-12-10T21:14:07;133.98;;;45.45;;